Terminal Aerodrome Forecast
Issued by NWS

Home | Current Version | Previous Version | Text Only | Print | Product List | Glossary On
Versions: 1 2 3 4 5 6 7 8 9 10 11 12 13 14 15 16 17 18 19 20 21 22 23 24 25 26 27 28 29 30 31 32
000
FTUS42 KCAE 010500
TAFCUB
TAF
KCUB 010531Z 0106/0206 06004KT P6SM -RA OVC020
     FM010900 04004KT 6SM -RA OVC012
     FM011200 02004KT 4SM -RA OVC009
     FM011500 VRB03KT 2SM -RA BR OVC006
     FM020300 VRB03KT P6SM BKN015=

USA.gov is the U.S. government's official web portal to all federal, state and local government web resources and services.